createdAt,value
2022-09-25T00:00:06.275Z,97926.78
2022-09-25T00:02:38.680Z,97923.28
2022-09-25T00:05:09.602Z,97921.34
2022-09-25T00:07:39.253Z,97934.63
2022-09-25T00:10:10.596Z,97923.22
2022-09-25T00:12:40.201Z,97926.00
2022-09-25T00:15:11.057Z,97928.78
2022-09-25T00:17:43.489Z,97929.97
2022-09-25T00:20:10.739Z,97928.38
2022-09-25T00:22:42.264Z,97930.72
2022-09-25T00:25:15.639Z,97929.25
2022-09-25T00:27:46.874Z,97920.25
2022-09-25T00:30:17.260Z,97915.69
2022-09-25T00:32:49.504Z,97923.97
2022-09-25T00:35:19.328Z,97918.06
2022-09-25T00:37:49.080Z,97913.63
2022-09-25T00:40:19.961Z,97913.59
2022-09-25T00:42:49.653Z,97910.44
2022-09-25T00:45:21.897Z,97906.81
2022-09-25T00:48:02.070Z,97908.03
2022-09-25T00:50:39.445Z,97904.59
2022-09-25T00:53:13.463Z,97891.75
2022-09-25T00:55:47.080Z,97900.31
2022-09-25T00:58:19.732Z,97892.47
2022-09-25T01:00:49.589Z,97892.44
2022-09-25T01:03:23.553Z,97883.03
2022-09-25T01:05:54.713Z,97885.47
2022-09-25T01:08:28.661Z,97889.03
2022-09-25T01:10:58.385Z,97876.81
2022-09-25T01:13:30.025Z,97874.94
2022-09-25T01:16:06.327Z,97872.25
2022-09-25T01:18:54.100Z,97876.22
2022-09-25T01:21:33.006Z,97876.16
2022-09-25T01:24:30.861Z,97873.38
2022-09-25T01:27:36.455Z,97875.66
2022-09-25T01:30:14.489Z,97882.72
2022-09-25T01:33:04.677Z,97887.03
2022-09-25T01:35:40.363Z,97886.69
2022-09-25T01:38:19.355Z,97879.69
2022-09-25T01:40:55.458Z,97884.84
2022-09-25T01:43:31.278Z,97879.31
2022-09-25T01:46:07.339Z,97876.94
2022-09-25T01:48:41.340Z,97876.81
2022-09-25T01:51:17.321Z,97878.72
2022-09-25T01:53:51.233Z,97887.78
2022-09-25T01:56:33.766Z,97882.28
2022-09-25T01:59:10.028Z,97876.38
2022-09-25T02:01:45.495Z,97884.59
2022-09-25T02:04:21.973Z,97884.59
2022-09-25T02:06:54.341Z,97894.41
2022-09-25T02:09:30.427Z,97886.19
2022-09-25T02:12:03.571Z,97890.13
2022-09-25T02:14:40.044Z,97893.63
2022-09-25T02:17:36.095Z,97885.50
2022-09-25T02:20:18.952Z,97893.34
2022-09-25T02:22:51.503Z,97889.03
2022-09-25T02:25:27.919Z,97893.28
2022-09-25T02:27:57.661Z,97888.94
2022-09-25T02:30:28.360Z,97883.50
2022-09-25T02:33:01.020Z,97885.59
2022-09-25T02:35:31.509Z,97874.13
2022-09-25T02:38:01.253Z,97875.41
2022-09-25T02:40:40.442Z,97879.19
2022-09-25T02:43:23.479Z,97880.38
2022-09-25T02:46:06.390Z,97878.44
2022-09-25T02:48:49.975Z,97880.84
2022-09-25T02:51:27.827Z,97882.44
2022-09-25T02:54:08.322Z,97881.66
2022-09-25T02:56:43.306Z,97883.22
2022-09-25T02:59:17.621Z,97877.00
2022-09-25T03:01:48.824Z,97877.81
2022-09-25T03:04:22.849Z,97873.53
2022-09-25T03:06:56.195Z,97876.25
2022-09-25T03:09:27.940Z,97866.88
2022-09-25T03:11:58.149Z,97861.41
2022-09-25T03:14:29.926Z,97859.03
2022-09-25T03:17:02.386Z,97869.50
2022-09-25T03:19:35.097Z,97871.09
2022-09-25T03:22:05.507Z,97882.53
2022-09-25T03:24:35.267Z,97877.06
2022-09-25T03:27:04.964Z,97881.75
2022-09-25T03:29:34.594Z,97886.78
2022-09-25T03:32:04.896Z,97875.81
2022-09-25T03:34:37.315Z,97877.84
2022-09-25T03:37:06.962Z,97877.06
2022-09-25T03:39:36.656Z,97876.22
2022-09-25T03:42:06.453Z,97881.75
2022-09-25T03:44:36.640Z,97875.09
2022-09-25T03:47:06.336Z,97877.13
2022-09-25T03:49:38.648Z,97877.91
2022-09-25T03:52:12.969Z,97876.31
2022-09-25T03:54:42.685Z,97883.28
2022-09-25T03:57:12.687Z,97872.38
2022-09-25T03:59:42.432Z,97885.25
2022-09-25T04:02:13.412Z,97879.41
2022-09-25T04:04:45.966Z,97883.75
2022-09-25T04:07:16.921Z,97874.69
2022-09-25T04:09:46.672Z,97876.22
2022-09-25T04:12:16.493Z,97871.59
2022-09-25T04:14:46.989Z,97864.22
2022-09-25T04:17:16.731Z,97857.16
2022-09-25T04:19:49.331Z,97857.88
2022-09-25T04:22:19.002Z,97863.34
2022-09-25T04:24:51.523Z,97857.41
2022-09-25T04:27:23.001Z,97870.81
2022-09-25T04:29:53.290Z,97868.03
2022-09-25T04:32:35.403Z,97877.78
2022-09-25T04:35:08.221Z,97873.88
2022-09-25T04:37:37.936Z,97871.19
2022-09-25T04:40:08.934Z,97872.34
2022-09-25T04:42:38.698Z,97874.28
2022-09-25T04:45:09.362Z,97877.47
2022-09-25T04:47:39.049Z,97880.66
2022-09-25T04:50:12.277Z,97881.78
2022-09-25T04:52:41.975Z,97886.84
2022-09-25T04:55:12.397Z,97885.22
2022-09-25T04:57:58.478Z,97877.06
2022-09-25T05:00:32.771Z,97874.38
2022-09-25T05:03:02.630Z,97869.28
2022-09-25T05:05:35.390Z,97872.38
2022-09-25T05:08:06.223Z,97871.56
2022-09-25T05:10:36.755Z,97874.69
2022-09-25T05:13:09.274Z,97870.78
2022-09-25T05:15:39.160Z,97870.75
2022-09-25T05:18:11.004Z,97868.06
2022-09-25T05:20:43.322Z,97866.09
2022-09-25T05:23:13.388Z,97866.13
2022-09-25T05:25:43.302Z,97874.69
2022-09-25T05:28:15.822Z,97868.78
2022-09-25T05:30:45.599Z,97870.75
2022-09-25T05:33:15.309Z,97881.78
2022-09-25T05:35:48.614Z,97879.44
2022-09-25T05:38:19.052Z,97879.06
2022-09-25T05:40:48.866Z,97875.56
2022-09-25T05:43:19.156Z,97880.19
2022-09-25T05:45:56.690Z,97875.13
2022-09-25T05:48:26.418Z,97884.56
2022-09-25T05:51:00.012Z,97879.47
2022-09-25T05:53:31.075Z,97879.44
2022-09-25T05:56:03.626Z,97874.75
2022-09-25T05:58:35.020Z,97884.53
2022-09-25T06:01:06.172Z,97890.03
2022-09-25T06:03:36.301Z,97886.09
2022-09-25T06:06:09.410Z,97883.75
2022-09-25T06:08:39.178Z,97893.53
2022-09-25T06:11:11.606Z,97883.72
2022-09-25T06:13:44.520Z,97884.16
2022-09-25T06:16:19.660Z,97882.56
2022-09-25T06:18:51.233Z,97881.03
2022-09-25T06:21:24.175Z,97880.22
2022-09-25T06:23:54.518Z,97879.78
2022-09-25T06:26:26.127Z,97874.69
2022-09-25T06:29:01.011Z,97870.31
2022-09-25T06:31:32.895Z,97875.47
2022-09-25T06:34:02.753Z,97881.78
2022-09-25T06:36:35.205Z,97880.19
2022-09-25T06:39:05.050Z,97885.72
2022-09-25T06:41:34.865Z,97884.47
2022-09-25T06:44:05.096Z,97887.63
2022-09-25T06:46:34.939Z,97895.88
2022-09-25T06:49:04.818Z,97891.97
2022-09-25T06:51:39.546Z,97887.28
2022-09-25T06:54:09.429Z,97890.41
2022-09-25T06:56:39.465Z,97889.16
2022-09-25T06:59:09.865Z,97888.75
2022-09-25T07:01:39.773Z,97886.84
2022-09-25T07:04:06.995Z,97885.97
2022-09-25T07:06:39.387Z,97891.06
2022-09-25T07:09:09.250Z,97892.69
2022-09-25T07:11:40.393Z,97896.19
2022-09-25T07:14:10.238Z,97889.44
2022-09-25T07:16:39.924Z,97896.50
2022-09-25T07:19:09.682Z,97899.69
2022-09-25T07:21:41.994Z,97900.09
2022-09-25T07:24:11.771Z,97904.06
2022-09-25T07:26:43.497Z,97900.59
2022-09-25T07:29:13.236Z,97904.88
2022-09-25T07:31:43.210Z,97894.56
2022-09-25T07:34:13.226Z,97904.72
2022-09-25T07:36:46.363Z,97898.06
2022-09-25T07:39:18.584Z,97899.59
2022-09-25T07:41:49.100Z,97903.91
2022-09-25T07:44:38.145Z,97896.53
2022-09-25T07:47:09.156Z,97897.28
2022-09-25T07:49:40.338Z,97894.94
2022-09-25T07:52:13.569Z,97894.84
2022-09-25T07:54:43.352Z,97907.41
2022-09-25T07:57:13.282Z,97906.22
2022-09-25T07:59:43.095Z,97901.91
2022-09-25T08:02:13.319Z,97901.09
2022-09-25T08:04:43.134Z,97906.72
2022-09-25T08:07:15.488Z,97901.53
2022-09-25T08:09:45.298Z,97907.75
2022-09-25T08:12:16.317Z,97908.91
2022-09-25T08:14:46.236Z,97912.03
2022-09-25T08:17:15.937Z,97913.97
2022-09-25T08:19:45.623Z,97915.22
2022-09-25T08:22:18.061Z,97912.09
2022-09-25T08:24:48.863Z,97919.19
2022-09-25T08:27:18.708Z,97919.22
2022-09-25T08:29:48.396Z,97918.91
2022-09-25T08:32:18.079Z,97907.94
2022-09-25T08:34:49.469Z,97913.72
2022-09-25T08:37:22.002Z,97907.41
2022-09-25T08:39:51.710Z,97908.13
2022-09-25T08:42:30.696Z,97910.44
2022-09-25T08:45:21.733Z,97903.03
2022-09-25T08:48:08.159Z,97906.56
2022-09-25T08:50:38.922Z,97901.78
2022-09-25T08:53:24.413Z,97901.75
2022-09-25T08:56:07.083Z,97901.72
2022-09-25T08:58:42.740Z,97896.19
2022-09-25T09:01:17.498Z,97882.34
2022-09-25T09:03:51.888Z,97887.03
2022-09-25T09:06:21.999Z,97884.00
2022-09-25T09:09:00.888Z,97885.19
2022-09-25T09:11:35.312Z,97883.94
2022-09-25T09:14:08.466Z,97892.91
2022-09-25T09:16:46.340Z,97896.78
2022-09-25T09:19:16.359Z,97892.91
2022-09-25T09:21:50.544Z,97888.94
2022-09-25T09:24:33.045Z,97896.50
2022-09-25T09:27:19.672Z,97890.88
2022-09-25T09:30:05.203Z,97893.63
2022-09-25T09:32:47.999Z,97886.81
2022-09-25T09:35:33.759Z,97881.69
2022-09-25T09:38:16.013Z,97879.72
2022-09-25T09:41:04.995Z,97880.94
2022-09-25T09:43:57.786Z,97887.69
2022-09-25T09:46:37.227Z,97875.94
2022-09-25T09:49:15.626Z,97876.47
2022-09-25T09:51:51.966Z,97877.69
2022-09-25T09:54:29.152Z,97878.16
2022-09-25T09:57:04.788Z,97886.03
2022-09-25T09:59:52.484Z,97890.72
2022-09-25T10:02:33.725Z,97887.88
2022-09-25T10:05:08.098Z,97872.41
2022-09-25T10:07:41.706Z,97881.44
2022-09-25T10:10:17.702Z,97884.50
2022-09-25T10:12:52.450Z,97887.59
2022-09-25T10:15:31.122Z,97879.06
2022-09-25T10:18:03.575Z,97871.97
2022-09-25T10:20:42.085Z,97870.94
2022-09-25T10:23:24.889Z,97868.13
2022-09-25T10:25:56.171Z,97869.31
2022-09-25T10:28:30.832Z,97866.16
2022-09-25T10:31:02.094Z,97873.91
2022-09-25T10:33:34.436Z,97865.94
2022-09-25T10:36:04.747Z,97869.56
2022-09-25T10:38:42.205Z,97875.09
2022-09-25T10:41:15.042Z,97872.69
2022-09-25T10:44:01.024Z,97874.56
2022-09-25T10:46:45.080Z,97876.94
2022-09-25T10:49:33.675Z,97877.81
2022-09-25T10:52:08.140Z,97873.53
2022-09-25T10:54:44.458Z,97878.66
2022-09-25T10:57:25.688Z,97879.50
2022-09-25T10:59:59.565Z,97869.13
2022-09-25T11:02:39.261Z,97875.75
2022-09-25T11:05:17.925Z,97875.72
2022-09-25T11:07:55.408Z,97880.47
2022-09-25T11:10:27.066Z,97880.47
2022-09-25T11:12:57.560Z,97883.63
2022-09-25T11:15:30.673Z,97878.56
2022-09-25T11:18:01.434Z,97884.97
2022-09-25T11:20:33.010Z,97884.63
2022-09-25T11:23:29.650Z,97878.41
2022-09-25T11:26:08.298Z,97884.00
2022-09-25T11:28:44.662Z,97887.19
2022-09-25T11:31:26.409Z,97890.44
2022-09-25T11:34:07.670Z,97884.56
2022-09-25T11:36:43.367Z,97889.75
2022-09-25T11:39:31.444Z,97886.66
2022-09-25T11:42:07.113Z,97894.50
2022-09-25T11:44:42.451Z,97887.84
2022-09-25T11:47:27.810Z,97892.09
2022-09-25T11:50:02.264Z,97890.53
2022-09-25T11:52:43.130Z,97891.75
2022-09-25T11:55:43.237Z,97886.63
2022-09-25T11:58:48.856Z,97886.56
2022-09-25T12:01:29.102Z,97880.94
2022-09-25T12:04:30.456Z,97872.16
2022-09-25T12:07:20.136Z,97859.88
2022-09-25T12:10:12.355Z,97859.75
2022-09-25T12:12:52.969Z,97860.75
2022-09-25T12:15:31.507Z,97863.75
2022-09-25T12:18:08.737Z,97856.56
2022-09-25T12:20:51.000Z,97869.72
2022-09-25T12:23:31.274Z,97848.16
2022-09-25T12:26:13.658Z,97853.66
2022-09-25T12:28:55.174Z,97848.84
2022-09-25T12:31:37.025Z,97846.00
2022-09-25T12:34:15.531Z,97849.53
2022-09-25T12:36:54.384Z,97852.38
2022-09-25T12:39:32.991Z,97846.84
2022-09-25T12:42:10.556Z,97847.00
2022-09-25T12:44:49.480Z,97853.63
2022-09-25T12:47:27.786Z,97850.41
2022-09-25T12:50:01.712Z,97849.00
2022-09-25T12:52:42.469Z,97847.00
2022-09-25T12:55:19.358Z,97848.03
2022-09-25T12:57:55.776Z,97846.97
2022-09-25T13:00:28.562Z,97844.22
2022-09-25T13:03:03.710Z,97846.59
2022-09-25T13:05:38.143Z,97839.44
2022-09-25T13:08:23.636Z,97836.38
2022-09-25T13:10:59.698Z,97832.09
2022-09-25T13:13:32.494Z,97840.44
2022-09-25T13:16:05.409Z,97837.09
2022-09-25T13:18:36.607Z,97838.66
2022-09-25T13:21:28.058Z,97836.66
2022-09-25T13:24:01.127Z,97835.06
2022-09-25T13:26:32.750Z,97824.88
2022-09-25T13:29:07.987Z,97836.13
2022-09-25T13:31:43.289Z,97832.06
2022-09-25T13:34:16.017Z,97830.63
2022-09-25T13:36:50.357Z,97834.50
2022-09-25T13:39:46.347Z,97831.47
2022-09-25T13:42:23.117Z,97823.78
2022-09-25T13:45:01.098Z,97822.94
2022-09-25T13:48:04.439Z,97826.50
2022-09-25T13:50:41.559Z,97829.84
2022-09-25T13:53:20.770Z,97821.84
2022-09-25T13:56:29.460Z,97822.25
2022-09-25T13:59:24.692Z,97819.81
2022-09-25T14:02:22.905Z,97820.56
2022-09-25T14:04:52.742Z,97817.09
2022-09-25T14:07:26.258Z,97818.13
2022-09-25T14:09:59.212Z,97822.66
2022-09-25T14:12:35.198Z,97815.19
2022-09-25T14:15:13.448Z,97808.66
2022-09-25T14:17:46.478Z,97815.81
2022-09-25T14:20:40.367Z,97820.94
2022-09-25T14:23:16.273Z,97816.66
2022-09-25T14:25:47.786Z,97822.59
2022-09-25T14:28:23.122Z,97825.09
2022-09-25T14:31:32.085Z,97820.44
2022-09-25T14:34:18.609Z,97820.06
2022-09-25T14:37:01.931Z,97813.41
2022-09-25T14:39:40.052Z,97820.84
2022-09-25T14:42:42.460Z,97815.81
2022-09-25T14:45:34.590Z,97815.97
2022-09-25T14:48:09.975Z,97822.22
2022-09-25T14:50:46.540Z,97808.59
2022-09-25T14:53:28.498Z,97810.06
2022-09-25T14:56:01.897Z,97802.47
2022-09-25T14:58:35.472Z,97808.28
2022-09-25T15:01:18.079Z,97801.16
2022-09-25T15:03:52.236Z,97804.50
2022-09-25T15:06:31.834Z,97800.31
2022-09-25T15:09:02.919Z,97794.69
2022-09-25T15:11:43.568Z,97792.78
2022-09-25T15:14:14.533Z,97783.56
2022-09-25T15:16:58.854Z,97793.72
2022-09-25T15:19:35.964Z,97791.09
2022-09-25T15:22:12.435Z,97785.16
2022-09-25T15:24:48.058Z,97788.50
2022-09-25T15:27:18.406Z,97782.13
2022-09-25T15:29:50.142Z,97791.72
2022-09-25T15:32:22.712Z,97786.41
2022-09-25T15:35:08.809Z,97790.59
2022-09-25T15:37:39.542Z,97792.41
2022-09-25T15:40:22.934Z,97799.59
2022-09-25T15:42:53.400Z,97794.34
2022-09-25T15:45:39.781Z,97793.56
2022-09-25T15:48:18.778Z,97792.13
2022-09-25T15:50:51.944Z,97791.28
2022-09-25T15:53:29.033Z,97788.31
2022-09-25T15:56:09.470Z,97789.16
2022-09-25T15:58:48.590Z,97797.69
2022-09-25T16:01:34.921Z,97792.06
2022-09-25T16:04:20.717Z,97796.81
2022-09-25T16:06:53.661Z,97789.44
2022-09-25T16:09:26.921Z,97793.34
2022-09-25T16:11:56.685Z,97789.47
2022-09-25T16:14:31.985Z,97786.69
2022-09-25T16:17:01.974Z,97793.88
2022-09-25T16:19:37.173Z,97799.38
2022-09-25T16:22:24.485Z,97803.88
2022-09-25T16:24:55.009Z,97806.34
2022-09-25T16:27:31.721Z,97807.97
2022-09-25T16:30:05.004Z,97808.25
2022-09-25T16:32:34.994Z,97812.19
2022-09-25T16:35:06.224Z,97809.22
2022-09-25T16:37:39.039Z,97810.81
2022-09-25T16:40:23.603Z,97808.50
2022-09-25T16:42:54.002Z,97808.63
2022-09-25T16:45:27.981Z,97807.81
2022-09-25T16:47:58.486Z,97813.25
2022-09-25T16:50:33.706Z,97817.31
2022-09-25T16:53:06.407Z,97823.97
2022-09-25T16:55:38.389Z,97816.53
2022-09-25T16:58:12.155Z,97820.09
2022-09-25T17:00:41.957Z,97830.34
2022-09-25T17:03:13.101Z,97831.50
2022-09-25T17:05:42.933Z,97822.91
2022-09-25T17:08:20.552Z,97832.34
2022-09-25T17:10:53.324Z,97831.97
2022-09-25T17:13:31.180Z,97830.44
2022-09-25T17:16:01.030Z,97834.09
2022-09-25T17:18:30.821Z,97836.41
2022-09-25T17:21:03.752Z,97839.22
2022-09-25T17:23:36.203Z,97845.09
2022-09-25T17:26:08.727Z,97845.16
2022-09-25T17:28:38.423Z,97841.97
2022-09-25T17:31:08.365Z,97844.75
2022-09-25T17:33:38.219Z,97848.28
2022-09-25T17:36:09.740Z,97847.47
2022-09-25T17:38:42.642Z,97855.38
2022-09-25T17:41:20.846Z,97852.22
2022-09-25T17:43:50.969Z,97858.16
2022-09-25T17:46:21.508Z,97862.13
2022-09-25T17:48:54.461Z,97870.38
2022-09-25T17:51:27.113Z,97873.56
2022-09-25T17:54:02.364Z,97873.97
2022-09-25T17:56:34.334Z,97870.44
2022-09-25T17:59:05.685Z,97877.50
2022-09-25T18:01:39.773Z,97870.50
2022-09-25T18:04:20.767Z,97883.03
2022-09-25T18:06:51.104Z,97876.41
2022-09-25T18:09:23.355Z,97882.25
2022-09-25T18:11:53.299Z,97876.00
2022-09-25T18:14:23.088Z,97879.88
2022-09-25T18:16:52.772Z,97884.63
2022-09-25T18:19:35.787Z,97877.91
2022-09-25T18:22:21.661Z,97885.00
2022-09-25T18:24:57.028Z,97884.97
2022-09-25T18:27:29.032Z,97886.09
2022-09-25T18:29:58.812Z,97893.19
2022-09-25T18:32:31.512Z,97899.47
2022-09-25T18:35:02.552Z,97897.94
2022-09-25T18:37:32.517Z,97896.72
2022-09-25T18:40:05.122Z,97901.03
2022-09-25T18:42:35.049Z,97897.94
2022-09-25T18:45:04.687Z,97899.09
2022-09-25T18:47:34.600Z,97897.94
2022-09-25T18:50:04.377Z,97901.84
2022-09-25T18:52:34.550Z,97896.78
2022-09-25T18:55:07.547Z,97903.38
2022-09-25T18:57:40.433Z,97908.91
2022-09-25T19:00:11.653Z,97904.19
2022-09-25T19:02:42.752Z,97911.66
2022-09-25T19:05:12.909Z,97906.19
2022-09-25T19:07:42.595Z,97907.78
2022-09-25T19:10:15.146Z,97907.41
2022-09-25T19:12:46.802Z,97913.25
2022-09-25T19:15:17.033Z,97911.59
2022-09-25T19:17:47.081Z,97914.03
2022-09-25T19:20:17.930Z,97910.91
2022-09-25T19:22:47.584Z,97911.78
2022-09-25T19:25:22.607Z,97911.44
2022-09-25T19:27:52.605Z,97911.41
2022-09-25T19:30:22.357Z,97917.63
2022-09-25T19:32:52.061Z,97916.06
2022-09-25T19:35:21.833Z,97923.94
2022-09-25T19:37:51.528Z,97932.88
2022-09-25T19:40:39.955Z,97933.31
2022-09-25T19:43:10.347Z,97929.03
2022-09-25T19:45:40.066Z,97938.00
2022-09-25T19:48:09.767Z,97936.44
2022-09-25T19:50:43.396Z,97939.53
2022-09-25T19:53:13.598Z,97942.28
2022-09-25T19:55:46.382Z,97934.06
2022-09-25T19:58:19.855Z,97941.16
2022-09-25T20:00:53.647Z,97939.59
2022-09-25T20:03:23.767Z,97939.97
2022-09-25T20:05:53.684Z,97931.38
2022-09-25T20:08:23.442Z,97934.47
2022-09-25T20:10:55.764Z,97940.06
2022-09-25T20:13:25.605Z,97943.59
2022-09-25T20:15:55.809Z,97940.84
2022-09-25T20:18:25.927Z,97939.69
2022-09-25T20:20:55.709Z,97936.16
2022-09-25T20:23:25.413Z,97932.66
2022-09-25T20:25:57.760Z,97927.94
2022-09-25T20:28:27.397Z,97922.47
2022-09-25T20:30:57.142Z,97924.03
2022-09-25T20:33:29.058Z,97927.59
2022-09-25T20:36:03.315Z,97930.31
2022-09-25T20:38:33.305Z,97934.66
2022-09-25T20:41:07.567Z,97936.22
2022-09-25T20:43:38.665Z,97930.00
2022-09-25T20:46:10.951Z,97933.91
2022-09-25T20:48:42.434Z,97938.22
2022-09-25T20:51:14.276Z,97935.88
2022-09-25T20:53:44.950Z,97939.78
2022-09-25T20:56:18.399Z,97940.19
2022-09-25T20:58:53.079Z,97935.09
2022-09-25T21:01:25.360Z,97933.91
2022-09-25T21:03:56.077Z,97936.69
2022-09-25T21:06:27.675Z,97928.03
2022-09-25T21:09:00.472Z,97929.63
2022-09-25T21:11:34.558Z,97923.75
2022-09-25T21:14:06.381Z,97922.97
2022-09-25T21:16:36.624Z,97926.50
2022-09-25T21:19:07.144Z,97918.28
2022-09-25T21:21:37.872Z,97928.88
2022-09-25T21:24:08.486Z,97931.19
2022-09-25T21:26:40.755Z,97916.31
2022-09-25T21:29:11.145Z,97915.53
2022-09-25T21:31:48.215Z,97921.03
2022-09-25T21:34:19.546Z,97921.03
2022-09-25T21:36:50.112Z,97924.53
2022-09-25T21:39:21.344Z,97925.72
2022-09-25T21:41:53.783Z,97917.50
2022-09-25T21:44:24.993Z,97916.31
2022-09-25T21:46:54.657Z,97918.28
2022-09-25T21:49:24.925Z,97913.94
2022-09-25T21:51:54.612Z,97920.66
2022-09-25T21:54:24.408Z,97912.41
2022-09-25T21:56:56.783Z,97912.78
2022-09-25T21:59:26.441Z,97917.84
2022-09-25T22:01:56.161Z,97923.38
2022-09-25T22:04:26.280Z,97930.41
2022-09-25T22:06:57.607Z,97931.19
2022-09-25T22:09:28.124Z,97921.81
2022-09-25T22:12:00.745Z,97924.56
2022-09-25T22:14:30.514Z,97923.75
2022-09-25T22:17:00.255Z,97924.19
2022-09-25T22:19:31.870Z,97912.00
2022-09-25T22:22:02.648Z,97910.06
2022-09-25T22:24:32.346Z,97911.22
2022-09-25T22:27:04.675Z,97915.53
2022-09-25T22:29:34.634Z,97918.66
2022-09-25T22:32:04.629Z,97919.47
2022-09-25T22:34:34.382Z,97923.78
2022-09-25T22:37:04.126Z,97927.66
2022-09-25T22:39:33.834Z,97922.97
2022-09-25T22:42:06.765Z,97924.56
2022-09-25T22:44:36.444Z,97918.28
2022-09-25T22:47:06.194Z,97914.78
2022-09-25T22:49:35.858Z,97916.31
2022-09-25T22:52:05.541Z,97912.78
2022-09-25T22:54:35.300Z,97905.75
2022-09-25T22:57:07.635Z,97907.69
2022-09-25T22:59:37.348Z,97906.94
2022-09-25T23:02:07.093Z,97908.47
2022-09-25T23:04:36.812Z,97904.19
2022-09-25T23:07:06.568Z,97910.03
2022-09-25T23:09:36.281Z,97904.16
2022-09-25T23:12:08.687Z,97903.78
2022-09-25T23:14:38.366Z,97898.31
2022-09-25T23:17:08.177Z,97899.06
2022-09-25T23:19:37.991Z,97897.50
2022-09-25T23:22:07.757Z,97899.47
2022-09-25T23:24:37.553Z,97887.31
2022-09-25T23:27:09.817Z,97891.63
2022-09-25T23:29:39.571Z,97888.84
2022-09-25T23:32:10.502Z,97887.25
2022-09-25T23:34:40.245Z,97880.22
2022-09-25T23:37:09.906Z,97886.09
2022-09-25T23:39:39.693Z,97883.34
2022-09-25T23:42:12.054Z,97872.41
2022-09-25T23:44:41.703Z,97870.88
2022-09-25T23:47:11.369Z,97867.75
2022-09-25T23:49:40.984Z,97867.34
2022-09-25T23:52:10.933Z,97856.38
2022-09-25T23:54:40.565Z,97854.78
2022-09-25T23:57:14.639Z,97849.31
2022-09-25T23:59:44.298Z,97861.84
